Time;durP1;ratioP1;P1;durP2;ratioP2;P2;SDS_P1;SDS_P2;PMS_P1;PMS_P2;Temp;Humidity;BMP_temperature;BMP_pressure;BME280_temperature;BME280_humidity;BME280_pressure;Samples;Min_cycle;Max_cycle;Signal;HPM_P1;HPM_P2
2022/01/27 00:01:58;;;;;;;32.00;13.95;;;;;;;3.31;60.19;100687.38;7765546;32;41822;-82
2022/01/27 00:06:16;;;;;;;28.33;13.73;;;;;;;3.32;60.14;100705.19;7765718;32;38083;-83
2022/01/27 00:15:08;;;;;;;29.65;14.13;;;;;;;3.28;60.25;100671.59;7765719;32;38973;-82
2022/01/27 00:19:25;;;;;;;25.83;14.20;;;;;;;2.92;60.87;100683.47;7764544;32;40030;-83
2022/01/27 00:23:42;;;;;;;31.10;14.43;;;;;;;3.06;60.99;100670.06;7764235;32;38783;-82
2022/01/27 00:27:58;;;;;;;29.15;15.13;;;;;;;2.75;62.02;100682.13;7765557;32;37074;-82
2022/01/27 00:32:14;;;;;;;27.92;14.15;;;;;;;2.69;62.14;100677.53;7765395;32;39197;-83
2022/01/27 00:36:32;;;;;;;28.83;13.43;;;;;;;2.46;63.11;100683.19;7764184;32;40566;-83
2022/01/27 00:40:48;;;;;;;30.52;14.68;;;;;;;3.22;60.34;100683.19;7765251;32;38692;-83
2022/01/27 00:45:04;;;;;;;30.27;14.00;;;;;;;3.04;60.82;100672.13;7765342;32;37903;-84
2022/01/27 00:49:21;;;;;;;28.67;13.70;;;;;;;3.43;59.53;100676.00;7764076;32;39983;-83
2022/01/27 00:53:49;;;;;;;27.62;14.20;;;;;;;3.44;59.24;100669.56;7765106;32;40810;-82
2022/01/27 01:02:54;;;;;;;30.75;14.18;;;;;;;3.54;58.98;100670.03;7764977;32;36810;-82
2022/01/27 01:07:12;;;;;;;30.77;14.90;;;;;;;2.22;63.09;100659.19;7752730;32;39972;-82
2022/01/27 01:15:51;;;;;;;25.65;13.35;;;;;;;2.64;62.49;100659.28;7764810;32;38807;-83
2022/01/27 01:29:29;;;;;;;29.75;13.38;;;;;;;2.13;63.05;100679.22;7765141;32;38285;-82
2022/01/27 01:33:55;;;;;;;27.42;13.57;;;;;;;2.62;61.65;100682.88;7764604;32;37894;-82
2022/01/27 01:38:13;;;;;;;27.27;13.57;;;;;;;3.03;60.00;100673.16;7768854;32;37906;-78
2022/01/27 01:42:31;;;;;;;23.25;12.18;;;;;;;2.69;60.83;100664.91;7768505;32;39453;-77
2022/01/27 01:46:47;;;;;;;28.48;12.45;;;;;;;2.68;60.88;100674.00;7767194;32;39200;-81
2022/01/27 01:51:04;;;;;;;26.08;12.45;;;;;;;2.51;61.07;100686.94;7764732;32;38060;-82
2022/01/27 01:55:20;;;;;;;21.77;12.45;;;;;;;2.46;61.17;100684.00;7764246;32;37059;-83
2022/01/27 01:59:39;;;;;;;26.77;12.70;;;;;;;2.32;61.79;100680.41;7764241;32;39969;-82
2022/01/27 02:03:55;;;;;;;26.25;13.23;;;;;;;1.86;62.48;100667.37;7763669;32;39921;-82
2022/01/27 02:21:54;;;;;;;24.10;13.07;;;;;;;2.09;61.86;100659.12;7763435;32;39776;-82
2022/01/27 02:26:10;;;;;;;25.35;13.30;;;;;;;1.53;63.93;100659.00;7763417;32;38651;-80
2022/01/27 02:30:26;;;;;;;22.62;13.20;;;;;;;1.71;63.34;100647.81;7763269;32;37286;-82
2022/01/27 02:34:43;;;;;;;27.00;13.10;;;;;;;1.17;64.46;100641.06;7765450;32;39303;-82
2022/01/27 02:39:00;;;;;;;25.10;13.73;;;;;;;1.03;65.26;100650.81;7767393;32;40934;-79
2022/01/27 02:43:16;;;;;;;24.65;13.70;;;;;;;1.64;64.19;100637.00;7767830;32;38834;-81
2022/01/27 02:47:33;;;;;;;24.95;13.07;;;;;;;1.38;64.11;100638.41;7767179;32;38203;-81
2022/01/27 02:51:49;;;;;;;24.98;12.77;;;;;;;1.77;63.53;100642.50;7766929;32;39948;-82
2022/01/27 02:56:06;;;;;;;31.40;14.43;;;;;;;1.87;63.15;100647.56;7766484;32;40735;-80
2022/01/27 03:00:22;;;;;;;33.75;15.05;;;;;;;1.46;64.75;100662.44;7766480;32;38697;-80
2022/01/27 03:04:38;;;;;;;26.65;13.62;;;;;;;1.51;64.11;100683.38;7766407;32;37182;-83
2022/01/27 03:08:54;;;;;;;29.65;14.60;;;;;;;1.13;65.05;100684.41;7766390;32;39210;-82
2022/01/27 03:13:11;;;;;;;28.48;13.35;;;;;;;1.63;63.65;100672.97;7766314;32;39989;-81
2022/01/27 03:17:27;;;;;;;25.77;14.27;;;;;;;2.12;61.76;100669.50;7766233;32;37916;-81
2022/01/27 03:21:43;;;;;;;22.62;12.40;;;;;;;1.45;64.09;100668.88;7766302;32;37098;-81
2022/01/27 03:25:59;;;;;;;25.75;13.75;;;;;;;2.03;61.76;100667.97;7766256;32;39270;-83
2022/01/27 03:30:17;;;;;;;25.95;13.18;;;;;;;1.75;62.79;100665.22;7766242;32;40725;-81
2022/01/27 03:34:33;;;;;;;26.90;13.68;;;;;;;1.46;63.44;100657.06;7765993;32;38700;-82
2022/01/27 03:38:49;;;;;;;31.65;15.70;;;;;;;1.85;62.15;100652.31;7766161;32;37215;-81
2022/01/27 03:43:09;;;;;;;28.33;14.15;;;;;;;1.48;63.05;100656.88;7765833;32;39852;-81
2022/01/27 03:47:25;;;;;;;26.75;11.95;;;;;;;1.50;63.30;100658.38;7766071;32;39947;-79
2022/01/27 03:51:41;;;;;;;24.50;13.32;;;;;;;1.63;62.80;100657.66;7765976;32;38867;-82
2022/01/27 03:55:58;;;;;;;27.23;14.77;;;;;;;1.76;62.60;100656.97;7765809;32;37186;-81
2022/01/27 04:00:14;;;;;;;29.15;14.68;;;;;;;1.62;63.17;100652.47;7765873;32;39179;-81
2022/01/27 04:04:31;;;;;;;30.77;14.20;;;;;;;2.16;61.08;100632.28;7765631;32;39852;-80
2022/01/27 04:08:48;;;;;;;31.65;14.65;;;;;;;1.93;61.67;100645.94;7765560;32;37878;-82
2022/01/27 04:13:06;;;;;;;25.52;14.25;;;;;;;1.69;62.45;100635.41;7765751;32;37813;-80
2022/01/27 04:17:22;;;;;;;31.48;14.63;;;;;;;1.48;62.50;100628.19;7765505;32;39242;-81
2022/01/27 04:21:38;;;;;;;31.02;13.85;;;;;;;2.04;61.10;100629.28;7765607;32;40023;-81
2022/01/27 04:25:54;;;;;;;24.12;13.25;;;;;;;2.09;60.46;100634.91;7765660;32;37997;-82
2022/01/27 04:30:16;;;;;;;24.85;14.23;;;;;;;1.99;60.36;100623.66;7765665;32;37077;-82
2022/01/27 04:34:32;;;;;;;26.95;13.90;;;;;;;1.59;61.96;100623.31;7765487;32;39862;-82
2022/01/27 04:38:55;;;;;;;24.40;13.38;;;;;;;2.37;60.07;100609.84;7765506;32;40759;-84
2022/01/27 04:47:46;;;;;;;25.45;14.15;;;;;;;1.64;61.43;100620.88;7765316;32;37072;-82
2022/01/27 04:52:02;;;;;;;24.87;13.43;;;;;;;2.19;60.37;100615.72;7765454;32;39531;-81
2022/01/27 04:56:20;;;;;;;23.00;12.93;;;;;;;2.41;59.29;100605.72;7764231;32;40726;-82
2022/01/27 05:00:37;;;;;;;28.25;13.48;;;;;;;2.21;60.05;100606.44;7765038;32;38896;-82
2022/01/27 05:04:53;;;;;;;25.80;13.62;;;;;;;2.36;59.72;100600.09;7763655;32;37198;-81
2022/01/27 05:09:29;;;;;;;25.25;12.98;;;;;;;2.62;58.86;100604.78;7764725;32;40810;-82
2022/01/27 05:13:54;;;;;;;26.30;12.82;;;;;;;2.45;59.03;100596.25;7765008;32;40019;-80
2022/01/27 05:18:11;;;;;;;28.45;15.13;;;;;;;2.10;59.96;100598.91;7764758;32;38007;-82
2022/01/27 05:22:27;;;;;;;28.08;13.90;;;;;;;1.82;61.85;100606.97;7765282;32;35234;-81
2022/01/27 05:26:44;;;;;;;26.67;12.98;;;;;;;2.24;59.92;100592.59;7764808;32;39228;-81
2022/01/27 05:31:01;;;;;;;29.27;15.07;;;;;;;1.60;62.02;100598.09;7764591;32;40911;-81
2022/01/27 05:35:18;;;;;;;29.17;13.05;;;;;;;1.53;62.83;100599.87;7764488;32;38616;-82
2022/01/27 05:39:34;;;;;;;23.77;12.57;;;;;;;1.35;62.66;100601.16;7764588;32;37215;-81
2022/01/27 05:43:50;;;;;;;28.42;13.73;;;;;;;1.71;61.95;100583.28;7764665;32;40075;-82
2022/01/27 05:48:06;;;;;;;25.73;13.65;;;;;;;1.04;64.25;100583.50;7767186;32;40855;-78
2022/01/27 05:52:23;;;;;;;30.10;13.52;;;;;;;1.57;62.24;100577.81;7767370;32;37935;-79
2022/01/27 05:56:39;;;;;;;30.37;16.12;;;;;;;1.49;63.21;100570.69;7767839;32;37353;-81
2022/01/27 06:00:55;;;;;;;26.62;13.68;;;;;;;1.57;62.38;100566.22;7764193;32;39343;-81
2022/01/27 06:05:11;;;;;;;25.52;13.62;;;;;;;1.64;62.10;100562.56;7763757;32;39736;-81
2022/01/27 06:09:27;;;;;;;21.55;11.85;;;;;;;1.53;63.42;100559.56;7766547;32;38695;-80
2022/01/27 06:13:44;;;;;;;24.05;14.40;;;;;;;1.61;63.23;100579.09;7767228;32;37169;-79
2022/01/27 06:18:00;;;;;;;28.30;14.68;;;;;;;1.65;62.87;100569.59;7766894;32;39309;-82
2022/01/27 06:22:16;;;;;;;26.27;12.70;;;;;;;1.54;63.06;100577.38;7767254;32;40840;-82
2022/01/27 06:26:33;;;;;;;27.55;13.52;;;;;;;2.16;60.88;100578.47;7767256;32;37860;-80
2022/01/27 06:30:49;;;;;;;29.67;14.82;;;;;;;1.76;62.13;100589.75;7767190;32;37902;-83
2022/01/27 06:35:06;;;;;;;29.00;13.65;;;;;;;1.96;61.77;100591.78;7766982;32;39824;-83
2022/01/27 06:39:22;;;;;;;26.42;13.60;;;;;;;2.23;60.61;100598.16;7766837;32;40879;-85
2022/01/27 06:43:38;;;;;;;26.65;14.32;;;;;;;2.71;59.17;100592.00;7767671;32;35797;-83
2022/01/27 06:47:56;;;;;;;32.10;16.05;;;;;;;1.87;61.24;100599.97;7767046;32;37416;-81
2022/01/27 06:52:12;;;;;;;30.55;14.95;;;;;;;1.80;61.54;100584.81;7767023;32;39307;-84
2022/01/27 06:56:28;;;;;;;30.88;15.63;;;;;;;2.16;60.27;100587.38;7766624;32;40546;-84
2022/01/27 07:00:44;;;;;;;30.42;15.15;;;;;;;2.13;60.67;100582.38;7766778;32;37948;-83
2022/01/27 07:05:00;;;;;;;29.70;15.50;;;;;;;2.37;59.92;100593.69;7766437;32;38167;-83
2022/01/27 07:09:16;;;;;;;28.02;15.35;;;;;;;2.82;58.89;100597.63;7766571;32;39246;-84
2022/01/27 07:13:33;;;;;;;29.48;16.30;;;;;;;2.01;61.25;100600.09;7766339;32;39883;-84
2022/01/27 07:17:49;;;;;;;32.80;15.85;;;;;;;2.47;59.27;100586.09;7766213;32;38220;-85
2022/01/27 07:22:05;;;;;;;30.67;15.25;;;;;;;2.31;59.94;100581.03;7766131;32;36898;-83
2022/01/27 07:26:25;;;;;;;33.55;14.80;;;;;;;2.07;60.84;100577.78;7766081;32;39757;-84
2022/01/27 07:30:41;;;;;;;29.58;13.93;;;;;;;1.83;61.84;100573.69;7766342;32;39691;-80
2022/01/27 07:34:57;;;;;;;27.33;14.10;;;;;;;1.57;62.64;100580.50;7765867;32;38558;-82
2022/01/27 07:39:15;;;;;;;19.85;10.50;;;;;;;1.67;62.50;100582.84;7766101;32;36779;-80
2022/01/27 07:43:31;;;;;;;27.25;14.20;;;;;;;2.30;60.37;100572.13;7757722;32;40022;-81
2022/01/27 07:47:47;;;;;;;30.52;16.20;;;;;;;1.36;63.87;100570.56;7751136;32;40644;-80
2022/01/27 07:52:03;;;;;;;25.75;14.57;;;;;;;1.79;62.38;100573.22;7763470;32;38551;-80
2022/01/27 07:56:20;;;;;;;26.00;14.57;;;;;;;2.32;61.27;100553.09;7767774;32;37201;-78
2022/01/27 08:00:36;;;;;;;27.08;14.30;;;;;;;2.05;61.94;100548.41;7766486;32;39470;-84
2022/01/27 08:04:53;;;;;;;24.63;14.23;;;;;;;3.17;58.53;100548.22;7765877;32;39954;-82
2022/01/27 08:09:09;;;;;;;28.58;14.45;;;;;;;2.72;59.69;100548.72;7764797;32;38696;-84
2022/01/27 08:13:26;;;;;;;26.75;14.23;;;;;;;2.68;59.69;100552.03;7765813;32;36943;-82
2022/01/27 08:17:42;;;;;;;26.52;14.15;;;;;;;2.93;58.79;100552.31;7765611;32;39446;-82
2022/01/27 08:21:58;;;;;;;29.30;14.63;;;;;;;3.41;57.56;100560.28;7765612;32;40806;-82
2022/01/27 08:26:26;;;;;;;25.35;14.45;;;;;;;2.77;59.23;100564.28;7765531;32;38831;-80
2022/01/27 08:30:46;;;;;;;27.10;14.07;;;;;;;2.72;59.17;100564.03;7764295;32;36874;-82
2022/01/27 08:35:05;;;;;;;24.20;13.02;;;;;;;2.73;59.76;100552.25;7764265;32;39788;-81
2022/01/27 08:39:21;;;;;;;27.05;14.95;;;;;;;3.05;58.31;100545.28;7765365;32;40534;-82
2022/01/27 08:43:37;;;;;;;30.27;15.38;;;;;;;2.51;59.76;100541.59;7757880;32;38495;-82
2022/01/27 08:47:57;;;;;;;27.10;14.98;;;;;;;2.41;59.94;100525.81;7764466;32;37109;-82
2022/01/27 08:52:13;;;;;;;24.05;13.93;;;;;;;2.68;59.90;100543.94;7748873;32;38462;-82
2022/01/27 08:56:30;;;;;;;27.75;14.25;;;;;;;2.72;59.25;100547.88;7755619;32;40740;-81
2022/01/27 09:00:46;;;;;;;24.15;12.60;;;;;;;2.37;61.11;100551.47;7764585;32;38782;-81
2022/01/27 09:05:02;;;;;;;33.05;14.30;;;;;;;2.86;59.19;100549.59;7765014;32;37971;-81
2022/01/27 09:09:19;;;;;;;27.73;15.10;;;;;;;3.11;57.72;100559.81;7765065;32;39178;-82
2022/01/27 09:13:36;;;;;;;27.50;13.55;;;;;;;2.41;60.18;100554.59;7765062;32;39956;-81
2022/01/27 09:17:52;;;;;;;30.77;15.10;;;;;;;2.68;59.74;100552.03;7764726;32;38868;-80
2022/01/27 09:22:13;;;;;;;27.73;15.23;;;;;;;3.06;59.59;100555.03;7764950;32;37941;-81
2022/01/27 09:26:42;;;;;;;26.62;13.80;;;;;;;3.01;58.95;100541.34;7759993;32;39367;-81
2022/01/27 09:30:59;;;;;;;28.15;14.70;;;;;;;3.09;58.37;100545.75;7739671;32;40677;-81
2022/01/27 09:35:16;;;;;;;29.20;15.73;;;;;;;2.61;58.87;100543.91;7737541;32;37618;-83
2022/01/27 09:39:33;;;;;;;31.58;14.20;;;;;;;3.07;58.91;100550.47;7737549;32;37342;-82
2022/01/27 09:43:53;;;;;;;31.45;15.50;;;;;;;2.95;58.21;100548.38;7740796;32;39005;-84
2022/01/27 09:48:16;;;;;;;27.02;14.00;;;;;;;2.55;59.66;100547.41;7749552;32;40838;-81
2022/01/27 09:52:33;;;;;;;32.13;16.12;;;;;;;2.96;59.07;100544.66;7738844;32;36672;-83
2022/01/27 09:56:49;;;;;;;29.27;14.65;;;;;;;3.31;58.60;100544.53;7739701;32;38006;-81
2022/01/27 10:01:05;;;;;;;26.65;13.13;;;;;;;3.69;56.73;100527.75;7738390;32;149490;-79
2022/01/27 10:05:22;;;;;;;22.67;11.57;;;;;;;3.35;57.29;100548.47;7743208;32;40350;-77
2022/01/27 10:09:39;;;;;;;29.65;14.55;;;;;;;3.55;56.45;100528.75;7743775;32;38443;-84
2022/01/27 10:13:58;;;;;;;28.23;13.75;;;;;;;3.38;56.57;100515.72;7735874;32;37119;-83
2022/01/27 10:18:16;;;;;;;26.30;14.57;;;;;;;4.19;55.40;100494.87;7735559;32;39076;-84
2022/01/27 10:22:33;;;;;;;25.62;14.15;;;;;;;4.19;54.53;100484.06;7736242;32;39785;-83
2022/01/27 10:27:15;;;;;;;30.35;13.10;;;;;;;4.54;53.25;100493.69;7748148;32;38044;-82
2022/01/27 10:31:32;;;;;;;24.57;12.47;;;;;;;5.11;53.34;100488.37;7756893;32;37160;-80
2022/01/27 10:35:48;;;;;;;22.48;11.05;;;;;;;5.56;49.73;100480.13;7751252;32;39563;-84
2022/01/27 10:40:05;;;;;;;20.50;10.48;;;;;;;5.60;49.09;100462.38;7757169;32;40083;-82
2022/01/27 10:44:23;;;;;;;19.45;9.98;;;;;;;6.50;46.72;100453.72;7761670;32;38020;-83
2022/01/27 10:48:48;;;;;;;17.73;9.35;;;;;;;6.10;47.52;100451.47;7762216;32;36184;-78
2022/01/27 10:53:05;;;;;;;17.83;9.43;;;;;;;6.60;45.62;100445.03;7762251;32;38986;-84
2022/01/27 10:57:26;;;;;;;20.85;8.82;;;;;;;6.86;45.82;100438.38;7766228;32;39997;-83
2022/01/27 11:01:48;;;;;;;15.57;8.20;;;;;;;7.66;43.45;100420.81;7765364;32;38670;-83
2022/01/27 11:06:10;;;;;;;20.73;11.18;;;;;;;7.26;43.25;100426.94;7766203;32;37077;-85
2022/01/27 11:10:26;;;;;;;23.12;11.73;;;;;;;6.90;44.62;100422.53;7765240;32;39284;-86
2022/01/27 11:14:45;;;;;;;23.38;11.77;;;;;;;7.01;44.53;100416.28;7765057;32;40682;-84
2022/01/27 11:19:17;;;;;;;21.45;10.50;;;;;;;7.15;44.16;100403.34;7766224;32;38081;-83
2022/01/27 11:24:03;;;;;;;23.17;10.20;;;;;;;5.59;47.16;100402.06;7766828;32;36794;-81
2022/01/27 11:28:20;;;;;;;22.92;10.90;;;;;;;6.45;45.43;100379.59;7766348;32;39316;-84
2022/01/27 11:32:51;;;;;;;20.73;10.88;;;;;;;6.14;46.34;100367.91;7764985;32;40118;-81
2022/01/27 11:37:07;;;;;;;24.30;11.12;;;;;;;6.31;46.09;100376.25;7766067;32;37595;-82
2022/01/27 11:41:48;;;;;;;22.20;12.18;;;;;;;6.35;45.97;100367.44;7766218;32;36806;-83
2022/01/27 11:46:17;;;;;;;22.60;11.93;;;;;;;5.57;47.92;100370.84;7766100;32;39953;-84
2022/01/27 11:50:36;;;;;;;22.85;12.15;;;;;;;6.14;46.42;100366.06;7766260;32;40016;-83
2022/01/27 11:54:54;;;;;;;51.40;26.15;;;;;;;6.28;46.39;100372.13;7766023;32;37968;-84
2022/01/27 11:59:10;;;;;;;35.33;18.30;;;;;;;6.70;45.42;100363.19;7766081;32;37099;-85
2022/01/27 12:03:26;;;;;;;50.33;27.90;;;;;;;6.24;46.39;100362.78;7765833;32;39176;-84
2022/01/27 12:08:12;;;;;;;43.42;23.40;;;;;;;6.54;45.75;100360.09;7765782;32;40118;-84
2022/01/27 12:12:32;;;;;;;27.85;13.82;;;;;;;6.89;44.91;100350.38;7765783;32;38115;-86
2022/01/27 12:17:09;;;;;;;30.83;14.05;;;;;;;7.33;44.15;100340.03;7764560;32;37940;-84
2022/01/27 12:21:36;;;;;;;23.40;12.27;;;;;;;6.96;44.57;100335.63;7765812;32;39245;-84
2022/01/27 12:25:53;;;;;;;28.02;11.85;;;;;;;6.01;46.89;100339.16;7765814;32;40075;-86
2022/01/27 12:30:10;;;;;;;25.98;12.13;;;;;;;6.23;46.19;100322.41;7765673;32;37691;-81
2022/01/27 12:34:28;;;;;;;23.42;11.93;;;;;;;5.24;49.13;100328.75;7765739;32;37131;-83
2022/01/27 12:38:44;;;;;;;22.98;12.45;;;;;;;5.70;47.98;100315.78;7765532;32;39312;-85
2022/01/27 12:43:11;;;;;;;25.85;13.07;;;;;;;5.18;49.97;100308.88;7765949;32;38192;-84
2022/01/27 12:47:30;;;;;;;23.02;12.57;;;;;;;6.14;48.68;100279.44;7765424;32;38851;-81
2022/01/27 12:51:49;;;;;;;26.48;13.05;;;;;;;6.41;46.41;100264.66;7765435;32;37209;-84
2022/01/27 12:56:09;;;;;;;26.60;13.18;;;;;;;6.30;47.26;100261.69;7765476;32;39691;-84
2022/01/27 13:00:28;;;;;;;25.02;12.63;;;;;;;5.76;48.35;100260.75;7765280;32;40732;-85
2022/01/27 13:04:45;;;;;;;24.10;12.48;;;;;;;6.27;46.85;100248.62;7765231;32;37971;-85
2022/01/27 13:09:13;;;;;;;26.12;13.05;;;;;;;6.36;47.17;100227.44;7763830;32;37408;-85
2022/01/27 13:13:35;;;;;;;24.73;13.30;;;;;;;7.01;45.52;100215.66;7765391;32;40188;-85
2022/01/27 13:18:03;;;;;;;25.45;13.50;;;;;;;7.43;44.10;100210.03;7764270;32;40518;-84
2022/01/27 13:22:27;;;;;;;29.52;14.43;;;;;;;6.43;46.07;100211.06;7764709;32;38491;-83
2022/01/27 13:26:46;;;;;;;25.65;13.38;;;;;;;6.96;45.18;100212.84;7765844;32;37219;-81
2022/01/27 13:31:08;;;;;;;31.05;14.75;;;;;;;6.88;45.50;100221.31;7768591;32;38222;-84
2022/01/27 13:35:25;;;;;;;29.63;14.30;;;;;;;6.93;45.93;100205.19;7766352;32;40926;-85
2022/01/27 13:44:18;;;;;;;28.70;14.57;;;;;;;7.30;44.78;100196.75;7764483;32;37995;-82
2022/01/27 13:48:54;;;;;;;33.15;15.88;;;;;;;7.17;45.12;100183.47;7764484;32;39391;-85
2022/01/27 13:53:10;;;;;;;33.70;16.92;;;;;;;6.04;47.74;100189.00;7764332;32;39889;-83
2022/01/27 13:57:36;;;;;;;34.90;15.40;;;;;;;6.78;46.62;100175.87;7764132;32;38674;-83
2022/01/27 14:02:12;;;;;;;30.73;15.85;;;;;;;7.97;43.73;100170.84;7764193;32;37209;-84
2022/01/27 14:06:29;;;;;;;30.95;15.65;;;;;;;8.30;42.56;100161.09;7762698;32;39790;-84
2022/01/27 14:10:46;;;;;;;35.75;16.15;;;;;;;8.32;42.14;100156.22;7763724;32;40899;-84
2022/01/27 14:15:02;;;;;;;37.83;16.30;;;;;;;8.59;41.42;100162.66;7763728;32;37730;-81
2022/01/27 14:19:18;;;;;;;33.55;15.85;;;;;;;7.98;42.67;100162.47;7763455;32;37129;-85
2022/01/27 14:28:10;;;;;;;35.55;17.25;;;;;;;6.26;47.24;100141.38;7764129;32;39948;-84
2022/01/27 14:32:26;;;;;;;35.60;17.87;;;;;;;6.52;45.84;100144.66;7766586;32;37928;-85
2022/01/27 14:36:43;;;;;;;31.77;15.70;;;;;;;6.23;47.00;100144.56;7766599;32;37136;-84
2022/01/27 14:40:59;;;;;;;42.62;18.45;;;;;;;6.82;45.58;100135.56;7766621;32;39185;-84
2022/01/27 14:45:18;;;;;;;39.17;19.20;;;;;;;6.19;47.50;100118.97;7761579;32;40567;-83
2022/01/27 14:49:46;;;;;;;43.33;19.85;;;;;;;5.92;47.53;100116.69;7766098;32;38169;-83
2022/01/27 14:54:06;;;;;;;40.97;19.10;;;;;;;6.14;47.62;100119.72;7765639;32;38032;-82
2022/01/27 14:58:23;;;;;;;45.67;20.48;;;;;;;6.48;46.60;100105.56;7765873;32;39386;-82
2022/01/27 15:02:39;;;;;;;41.63;19.75;;;;;;;6.49;46.93;100096.41;7766571;32;40052;-83
2022/01/27 15:06:56;;;;;;;52.28;22.08;;;;;;;6.44;47.14;100099.00;7766441;32;38029;-81
2022/01/27 15:11:12;;;;;;;45.50;21.23;;;;;;;6.41;47.28;100102.16;7768258;32;37337;-82
2022/01/27 15:20:03;;;;;;;49.25;19.77;;;;;;;5.46;49.53;100092.00;7766048;32;40788;-83
2022/01/27 15:24:20;;;;;;;42.25;20.33;;;;;;;5.79;48.97;100084.44;7764347;32;38817;-83
2022/01/27 15:28:37;;;;;;;47.55;21.60;;;;;;;5.74;48.84;100079.72;7766271;32;34897;-83
2022/01/27 15:32:53;;;;;;;42.85;22.13;;;;;;;6.22;47.25;100077.91;7766002;32;39309;-83
2022/01/27 15:37:10;;;;;;;44.92;23.48;;;;;;;6.30;46.88;100074.03;7765255;32;39930;-83
2022/01/27 15:41:26;;;;;;;51.33;23.65;;;;;;;6.14;47.10;100068.28;7765080;32;37961;-83
2022/01/27 15:45:42;;;;;;;42.88;20.92;;;;;;;6.27;46.67;100067.19;7765338;32;37264;-82
2022/01/27 15:49:58;;;;;;;43.87;21.42;;;;;;;6.29;46.63;100067.78;7765434;32;38896;-84
2022/01/27 15:54:14;;;;;;;42.13;23.00;;;;;;;6.12;47.01;100054.16;7765552;32;40856;-83
2022/01/27 15:58:30;;;;;;;41.90;19.92;;;;;;;5.75;47.79;100054.31;7764926;32;38704;-83
2022/01/27 16:02:47;;;;;;;37.67;20.50;;;;;;;5.99;47.38;100052.50;7765593;32;37334;-82
2022/01/27 16:07:03;;;;;;;37.17;20.50;;;;;;;5.98;47.40;100047.31;7765194;32;38889;-81
2022/01/27 16:11:19;;;;;;;46.80;23.05;;;;;;;6.20;47.06;100044.84;7765298;32;40548;-82
2022/01/27 16:15:36;;;;;;;40.15;21.67;;;;;;;6.15;47.09;100042.84;7765073;32;38751;-83
2022/01/27 16:19:53;;;;;;;45.67;21.08;;;;;;;6.06;47.36;100038.84;7765103;32;37847;-83
2022/01/27 16:24:09;;;;;;;40.40;20.58;;;;;;;6.01;47.48;100031.44;7765356;32;40218;-81
2022/01/27 16:28:25;;;;;;;39.10;19.90;;;;;;;6.09;47.29;100034.81;7764669;32;40013;-82
2022/01/27 16:32:42;;;;;;;39.95;19.58;;;;;;;5.90;47.64;100037.66;7764932;32;38502;-85
2022/01/27 16:36:59;;;;;;;38.72;18.80;;;;;;;5.79;47.99;100030.34;7764999;32;37821;-82
2022/01/27 16:41:15;;;;;;;38.10;20.52;;;;;;;5.77;47.97;100014.34;7765057;32;38927;-82
2022/01/27 16:45:31;;;;;;;38.90;20.05;;;;;;;5.72;47.80;100016.91;7765040;32;39737;-83
2022/01/27 16:49:47;;;;;;;41.10;20.88;;;;;;;5.97;47.01;100014.03;7764513;32;37757;-83
2022/01/27 16:54:04;;;;;;;42.65;20.70;;;;;;;6.08;46.60;99993.41;7763747;32;37882;-82
2022/01/27 16:58:20;;;;;;;37.92;18.52;;;;;;;6.05;46.60;99998.47;7764239;32;39192;-83
2022/01/27 17:02:36;;;;;;;44.67;21.10;;;;;;;5.90;47.34;99997.06;7764507;32;39898;-85
2022/01/27 17:06:53;;;;;;;47.03;21.02;;;;;;;5.69;47.91;99989.50;7764827;32;37740;-83
2022/01/27 17:11:10;;;;;;;38.83;19.35;;;;;;;5.53;48.43;99997.25;7764346;32;37937;-84
2022/01/27 17:15:26;;;;;;;40.55;20.60;;;;;;;5.50;48.66;100011.25;7764036;32;39244;-83
2022/01/27 17:19:47;;;;;;;40.90;20.67;;;;;;;5.33;49.31;100012.97;7764047;32;40765;-83
2022/01/27 17:24:04;;;;;;;41.70;21.50;;;;;;;5.45;49.11;100005.75;7763316;32;38690;-83
2022/01/27 17:28:20;;;;;;;42.08;19.40;;;;;;;5.36;49.43;100004.41;7764006;32;37924;-82
2022/01/27 17:32:36;;;;;;;35.90;18.27;;;;;;;5.39;49.33;100004.75;7764305;32;39271;-82
2022/01/27 17:36:53;;;;;;;45.10;19.65;;;;;;;4.98;50.16;100013.69;7764488;32;39687;-83
2022/01/27 17:41:12;;;;;;;39.53;19.15;;;;;;;5.02;49.97;100007.63;7762563;32;38839;-83
2022/01/27 17:45:29;;;;;;;35.50;18.60;;;;;;;4.91;50.38;100010.28;7763098;32;37029;-83
2022/01/27 17:49:45;;;;;;;40.35;18.77;;;;;;;4.71;51.12;100005.97;7763677;32;40477;-83
2022/01/27 17:54:02;;;;;;;35.33;18.33;;;;;;;4.80;51.06;100003.78;7764106;32;40175;-82
2022/01/27 17:58:18;;;;;;;41.33;19.42;;;;;;;4.88;51.10;99998.88;7762615;32;37850;-82
2022/01/27 18:02:35;;;;;;;36.45;19.30;;;;;;;4.99;50.82;100004.56;7762925;32;37064;-83
2022/01/27 18:06:51;;;;;;;36.90;19.98;;;;;;;4.98;50.63;99994.78;7763598;32;39375;-83
2022/01/27 18:11:07;;;;;;;52.03;22.37;;;;;;;5.03;50.61;100003.84;7763109;32;40880;-83
2022/01/27 18:15:24;;;;;;;46.33;20.52;;;;;;;5.14;50.26;100001.41;7763380;32;38618;-83
2022/01/27 18:19:40;;;;;;;42.20;20.98;;;;;;;4.85;51.38;99998.50;7762841;32;37956;-83
2022/01/27 18:23:56;;;;;;;41.75;20.40;;;;;;;4.83;51.54;99998.75;7762776;32;39991;-82
2022/01/27 18:28:12;;;;;;;44.10;21.17;;;;;;;4.64;52.36;99995.25;7763112;32;40774;-83
2022/01/27 18:32:31;;;;;;;42.97;20.40;;;;;;;4.73;52.09;99993.06;7762582;32;37716;-83
2022/01/27 18:36:47;;;;;;;43.67;21.52;;;;;;;4.95;51.64;99979.03;7762601;32;37694;-83
2022/01/27 18:41:04;;;;;;;41.47;21.23;;;;;;;4.77;52.25;99978.03;7761601;32;40096;-82
2022/01/27 18:45:20;;;;;;;45.75;22.60;;;;;;;4.66;52.45;99981.53;7761834;32;39957;-82
2022/01/27 18:49:37;;;;;;;43.95;22.17;;;;;;;4.74;52.78;99983.88;7762820;32;38387;-84
2022/01/27 18:53:53;;;;;;;47.25;23.15;;;;;;;4.88;52.38;99987.22;7762830;32;38378;-82
2022/01/27 18:58:09;;;;;;;44.95;22.17;;;;;;;4.72;53.12;99972.50;7762723;32;38963;-83
2022/01/27 19:02:26;;;;;;;48.47;21.52;;;;;;;4.62;53.35;99978.44;7762541;32;39876;-82
2022/01/27 19:06:42;;;;;;;60.95;23.42;;;;;;;4.91;52.55;99977.84;7762176;32;37905;-82
2022/01/27 19:10:59;;;;;;;44.45;22.48;;;;;;;4.85;52.96;99991.22;7762438;32;37070;-84
2022/01/27 19:15:16;;;;;;;45.10;21.83;;;;;;;4.94;52.24;99991.72;7763650;32;38931;-82
2022/01/27 19:19:33;;;;;;;37.00;19.33;;;;;;;5.04;51.33;99991.19;7767829;32;39926;-82
2022/01/27 19:23:58;;;;;;;41.20;19.90;;;;;;;5.20;50.96;100001.31;7770672;32;38706;-82
2022/01/27 19:28:34;;;;;;;40.05;19.75;;;;;;;5.32;50.29;99995.13;7768654;32;38602;-82
2022/01/27 19:32:53;;;;;;;38.35;19.40;;;;;;;5.29;50.21;99992.87;7771066;32;40194;-81
2022/01/27 19:37:10;;;;;;;36.13;19.30;;;;;;;5.43;49.71;99986.19;7772936;32;41003;-83
2022/01/27 19:41:27;;;;;;;37.22;18.10;;;;;;;5.53;49.53;99983.72;7767053;32;38817;-83
2022/01/27 19:45:44;;;;;;;36.63;18.70;;;;;;;5.72;48.92;99994.47;7767768;32;37029;-85
2022/01/27 19:50:00;;;;;;;32.92;18.45;;;;;;;5.68;49.09;99996.00;7766282;32;39276;-83
2022/01/27 19:54:19;;;;;;;36.60;19.55;;;;;;;5.48;49.62;100013.34;7765892;32;39983;-82
2022/01/27 19:58:35;;;;;;;42.90;20.92;;;;;;;5.43;49.80;100008.66;7765726;32;39596;-86
2022/01/27 20:02:54;;;;;;;35.88;18.60;;;;;;;4.65;51.93;100015.78;7765984;32;37714;-80
2022/01/27 20:07:14;;;;;;;39.78;20.62;;;;;;;5.19;49.93;100005.09;7765732;32;40066;-80
2022/01/27 20:11:30;;;;;;;38.00;19.67;;;;;;;4.65;51.29;100001.47;7765682;32;40790;-80
2022/01/27 20:15:52;;;;;;;35.17;19.20;;;;;;;4.27;52.82;99999.84;7765751;32;38790;-80
2022/01/27 20:20:10;;;;;;;42.20;20.25;;;;;;;4.04;53.28;100001.34;7765905;32;37243;-81
2022/01/27 20:24:27;;;;;;;36.38;19.45;;;;;;;3.94;53.81;100009.13;7766184;32;37463;-85
2022/01/27 20:28:44;;;;;;;36.75;19.52;;;;;;;4.30;53.25;100002.91;7764273;32;40991;-82
2022/01/27 20:33:01;;;;;;;38.38;19.83;;;;;;;3.51;55.19;100001.84;7764262;32;38045;-81
2022/01/27 20:37:18;;;;;;;32.58;19.62;;;;;;;3.92;53.89;100003.94;7765507;32;37185;-82
2022/01/27 20:41:34;;;;;;;40.17;20.95;;;;;;;3.63;55.72;100010.84;7765348;32;40036;-85
2022/01/27 20:45:53;;;;;;;37.92;19.75;;;;;;;3.67;55.18;100012.06;7765196;32;39941;-83